createdAt,value
2023-02-27T00:00:21.585Z,100357.66
2023-02-27T00:02:50.986Z,100365.72
2023-02-27T00:05:19.325Z,100375.84
2023-02-27T00:07:46.396Z,100364.34
2023-02-27T00:10:14.240Z,100360.47
2023-02-27T00:12:41.563Z,100361.41
2023-02-27T00:15:14.653Z,100377.13
2023-02-27T00:17:41.813Z,100375.16
2023-02-27T00:20:11.859Z,100375.34
2023-02-27T00:22:40.126Z,100374.34
2023-02-27T00:25:08.181Z,100368.88
2023-02-27T00:27:35.733Z,100357.41
2023-02-27T00:30:05.018Z,100345.78
2023-02-27T00:32:32.624Z,100345.50
2023-02-27T00:34:59.736Z,100336.47
2023-02-27T00:37:26.728Z,100344.38
2023-02-27T00:39:53.679Z,100348.84
2023-02-27T00:42:20.685Z,100342.28
2023-02-27T00:44:47.667Z,100342.28
2023-02-27T00:47:14.703Z,100357.81
2023-02-27T00:49:41.697Z,100364.22
2023-02-27T00:52:09.756Z,100369.94
2023-02-27T00:54:36.681Z,100357.97
2023-02-27T00:57:03.816Z,100349.56
2023-02-27T00:59:30.710Z,100370.81
2023-02-27T01:01:57.729Z,100349.84
2023-02-27T01:04:28.320Z,100366.44
2023-02-27T01:06:55.250Z,100358.25
2023-02-27T01:09:22.317Z,100381.44
2023-02-27T01:11:52.841Z,100365.81
2023-02-27T01:14:20.024Z,100392.06
2023-02-27T01:16:47.083Z,100391.81
2023-02-27T01:19:15.902Z,100413.22
2023-02-27T01:21:43.678Z,100403.06
2023-02-27T01:24:10.947Z,100408.97
2023-02-27T01:26:37.909Z,100421.19
2023-02-27T01:29:06.507Z,100410.03
2023-02-27T01:31:34.088Z,100422.47
2023-02-27T01:34:00.961Z,100416.06
2023-02-27T01:36:28.061Z,100413.00
2023-02-27T01:38:54.939Z,100405.69
2023-02-27T01:41:21.810Z,100406.06
2023-02-27T01:43:59.291Z,100399.63
2023-02-27T01:46:27.132Z,100415.56
2023-02-27T01:48:59.799Z,100418.50
2023-02-27T01:51:32.011Z,100434.09
2023-02-27T01:54:03.994Z,100429.97
2023-02-27T01:56:32.195Z,100433.88
2023-02-27T01:59:06.381Z,100435.34
2023-02-27T02:01:34.728Z,100433.81
2023-02-27T02:04:13.348Z,100444.16
2023-02-27T02:06:45.185Z,100445.66
2023-02-27T02:09:16.202Z,100416.06
2023-02-27T02:11:45.040Z,100424.75
2023-02-27T02:14:12.551Z,100441.19
2023-02-27T02:16:39.909Z,100438.72
2023-02-27T02:19:09.720Z,100436.59
2023-02-27T02:22:04.766Z,100434.66
2023-02-27T02:24:54.560Z,100442.63
2023-02-27T02:27:58.897Z,100449.47
2023-02-27T02:30:45.261Z,100443.59
2023-02-27T02:33:27.180Z,100429.47
2023-02-27T02:36:21.024Z,100450.41
2023-02-27T02:39:07.600Z,100454.44
2023-02-27T02:41:51.824Z,100455.47
2023-02-27T02:44:47.260Z,100450.47
2023-02-27T02:47:20.275Z,100457.31
2023-02-27T02:49:58.166Z,100458.00
2023-02-27T02:53:08.264Z,100453.25
2023-02-27T02:56:07.351Z,100452.59
2023-02-27T02:58:38.583Z,100451.41
2023-02-27T03:01:30.749Z,100446.94
2023-02-27T03:04:09.087Z,100457.13
2023-02-27T03:06:48.411Z,100461.38
2023-02-27T03:09:23.884Z,100451.00
2023-02-27T03:11:54.099Z,100450.91
2023-02-27T03:14:42.953Z,100456.66
2023-02-27T03:17:16.961Z,100451.75
2023-02-27T03:19:56.596Z,100456.56
2023-02-27T03:22:38.901Z,100452.41
2023-02-27T03:25:09.728Z,100457.00
2023-02-27T03:27:50.062Z,100450.59
2023-02-27T03:30:24.356Z,100457.44
2023-02-27T03:32:54.266Z,100458.97
2023-02-27T03:35:21.480Z,100448.81
2023-02-27T03:38:11.949Z,100448.53
2023-02-27T03:40:53.570Z,100441.69
2023-02-27T03:43:45.078Z,100453.94
2023-02-27T03:46:27.882Z,100438.00
2023-02-27T03:48:55.197Z,100433.38
2023-02-27T03:51:24.671Z,100435.44
2023-02-27T03:54:22.822Z,100428.34
2023-02-27T03:57:05.343Z,100437.84
2023-02-27T03:59:33.708Z,100436.75
2023-02-27T04:02:03.185Z,100442.81
2023-02-27T04:04:32.958Z,100444.72
2023-02-27T04:07:34.087Z,100438.69
2023-02-27T04:10:04.324Z,100428.00
2023-02-27T04:12:56.183Z,100435.31
2023-02-27T04:15:50.107Z,100442.97
2023-02-27T04:18:35.050Z,100431.97
2023-02-27T04:21:33.911Z,100433.88
2023-02-27T04:24:03.518Z,100432.91
2023-02-27T04:26:32.062Z,100411.63
2023-02-27T04:29:04.698Z,100412.56
2023-02-27T04:31:47.884Z,100432.44
2023-02-27T04:34:21.086Z,100436.66
2023-02-27T04:36:54.364Z,100434.78
2023-02-27T04:40:02.795Z,100433.34
2023-02-27T04:42:33.356Z,100437.38
2023-02-27T04:45:05.673Z,100438.13
2023-02-27T04:47:43.706Z,100446.25
2023-02-27T04:50:31.566Z,100450.16
2023-02-27T04:53:05.721Z,100468.88
2023-02-27T04:55:43.650Z,100472.19
2023-02-27T04:58:29.677Z,100469.41
2023-02-27T05:01:08.905Z,100478.88
2023-02-27T05:03:41.385Z,100480.06
2023-02-27T05:06:10.595Z,100483.34
2023-02-27T05:09:01.350Z,100478.81
2023-02-27T05:11:53.581Z,100490.56
2023-02-27T05:14:31.912Z,100493.75
2023-02-27T05:17:11.931Z,100489.69
2023-02-27T05:19:41.789Z,100498.47
2023-02-27T05:22:27.269Z,100500.00
2023-02-27T05:24:54.548Z,100503.28
2023-02-27T05:27:30.266Z,100496.13
2023-02-27T05:30:04.912Z,100499.41
2023-02-27T05:32:48.538Z,100506.13
2023-02-27T05:35:43.124Z,100509.13
2023-02-27T05:38:22.025Z,100498.63
2023-02-27T05:40:53.972Z,100502.78
2023-02-27T05:43:27.630Z,100506.69
2023-02-27T05:46:01.487Z,100514.41
2023-02-27T05:48:35.801Z,100510.44
2023-02-27T05:51:05.335Z,100517.50
2023-02-27T05:53:37.259Z,100522.25
2023-02-27T05:56:07.054Z,100530.06
2023-02-27T05:58:45.941Z,100534.88
2023-02-27T06:01:12.997Z,100534.13
2023-02-27T06:03:41.721Z,100539.69
2023-02-27T06:06:14.038Z,100544.75
2023-02-27T06:08:41.097Z,100537.84
2023-02-27T06:11:08.069Z,100534.28
2023-02-27T06:13:36.367Z,100527.66
2023-02-27T06:16:03.354Z,100525.78
2023-02-27T06:18:30.252Z,100537.34
2023-02-27T06:20:57.618Z,100532.50
2023-02-27T06:23:24.543Z,100535.00
2023-02-27T06:25:51.469Z,100531.22
2023-02-27T06:28:18.362Z,100531.75
2023-02-27T06:30:46.450Z,100521.03
2023-02-27T06:33:13.870Z,100534.84
2023-02-27T06:35:40.833Z,100546.75
2023-02-27T06:38:07.759Z,100551.72
2023-02-27T06:40:34.601Z,100552.84
2023-02-27T06:43:01.617Z,100554.25
2023-02-27T06:45:28.522Z,100557.97
2023-02-27T06:47:55.419Z,100557.78
2023-02-27T06:50:22.338Z,100563.47
2023-02-27T06:52:49.255Z,100560.13
2023-02-27T06:55:20.538Z,100560.75
2023-02-27T06:57:47.840Z,100564.84
2023-02-27T07:00:15.871Z,100567.78
2023-02-27T07:02:42.769Z,100559.91
2023-02-27T07:05:11.823Z,100563.97
2023-02-27T07:07:39.327Z,100564.56
2023-02-27T07:10:11.713Z,100566.88
2023-02-27T07:12:39.975Z,100562.84
2023-02-27T07:15:08.627Z,100558.56
2023-02-27T07:17:36.688Z,100564.38
2023-02-27T07:20:06.693Z,100553.28
2023-02-27T07:22:33.755Z,100545.47
2023-02-27T07:25:00.620Z,100549.00
2023-02-27T07:27:27.533Z,100545.47
2023-02-27T07:29:54.470Z,100543.53
2023-02-27T07:32:21.643Z,100548.94
2023-02-27T07:34:48.680Z,100542.31
2023-02-27T07:37:15.733Z,100555.81
2023-02-27T07:39:42.644Z,100552.41
2023-02-27T07:42:09.499Z,100560.41
2023-02-27T07:44:36.644Z,100562.16
2023-02-27T07:47:03.886Z,100565.16
2023-02-27T07:49:30.760Z,100562.63
2023-02-27T07:51:57.655Z,100577.28
2023-02-27T07:54:24.585Z,100578.25
2023-02-27T07:56:51.484Z,100592.50
2023-02-27T07:59:18.402Z,100588.84
2023-02-27T08:01:45.341Z,100596.53
2023-02-27T08:04:12.257Z,100598.59
2023-02-27T08:06:40.110Z,100591.66
2023-02-27T08:09:06.989Z,100592.03
2023-02-27T08:11:33.925Z,100598.59
2023-02-27T08:14:02.012Z,100596.06
2023-02-27T08:16:30.868Z,100597.00
2023-02-27T08:18:58.331Z,100606.34
2023-02-27T08:21:25.661Z,100608.78
2023-02-27T08:23:52.845Z,100611.75
2023-02-27T08:26:19.718Z,100611.25
2023-02-27T08:28:46.613Z,100617.63
2023-02-27T08:31:13.832Z,100611.38
2023-02-27T08:33:40.925Z,100616.31
2023-02-27T08:36:08.379Z,100633.88
2023-02-27T08:38:35.338Z,100646.97
2023-02-27T08:41:03.608Z,100641.91
2023-02-27T08:43:30.537Z,100664.06
2023-02-27T08:45:57.517Z,100665.63
2023-02-27T08:48:25.045Z,100670.50
2023-02-27T08:50:52.492Z,100670.91
2023-02-27T08:53:19.408Z,100673.38
2023-02-27T08:55:50.620Z,100670.25
2023-02-27T08:58:18.656Z,100680.97
2023-02-27T09:00:46.588Z,100688.16
2023-02-27T09:03:13.930Z,100671.75
2023-02-27T09:05:42.104Z,100678.50
2023-02-27T09:08:09.677Z,100680.66
2023-02-27T09:10:36.835Z,100686.19
2023-02-27T09:13:03.821Z,100683.44
2023-02-27T09:15:32.666Z,100676.94
2023-02-27T09:18:03.224Z,100689.88
2023-02-27T09:20:31.890Z,100696.97
2023-02-27T09:22:59.976Z,100696.13
2023-02-27T09:25:27.394Z,100703.19
2023-02-27T09:27:54.960Z,100695.72
2023-02-27T09:30:22.631Z,100707.84
2023-02-27T09:32:50.224Z,100716.38
2023-02-27T09:35:17.506Z,100711.56
2023-02-27T09:37:44.575Z,100709.13
2023-02-27T09:40:19.973Z,100706.28
2023-02-27T09:42:48.803Z,100714.66
2023-02-27T09:45:24.290Z,100728.09
2023-02-27T09:48:00.759Z,100724.47
2023-02-27T09:50:37.946Z,100739.53
2023-02-27T09:53:10.345Z,100738.13
2023-02-27T09:55:40.661Z,100730.31
2023-02-27T09:58:25.801Z,100728.38
2023-02-27T10:00:52.688Z,100728.59
2023-02-27T10:03:22.301Z,100734.59
2023-02-27T10:06:16.733Z,100737.19
2023-02-27T10:09:01.154Z,100733.47
2023-02-27T10:11:52.893Z,100727.25
2023-02-27T10:14:51.039Z,100738.84
2023-02-27T10:17:31.879Z,100727.31
2023-02-27T10:20:02.678Z,100745.03
2023-02-27T10:22:37.903Z,100729.13
2023-02-27T10:25:28.707Z,100740.31
2023-02-27T10:28:09.341Z,100746.47
2023-02-27T10:30:36.761Z,100739.59
2023-02-27T10:33:28.307Z,100741.56
2023-02-27T10:35:55.645Z,100732.44
2023-02-27T10:38:32.104Z,100747.19
2023-02-27T10:41:00.493Z,100743.72
2023-02-27T10:43:27.556Z,100760.13
2023-02-27T10:45:54.780Z,100756.56
2023-02-27T10:48:23.230Z,100761.09
2023-02-27T10:50:53.609Z,100764.84
2023-02-27T10:53:26.147Z,100763.81
2023-02-27T10:56:03.195Z,100759.38
2023-02-27T10:58:34.858Z,100761.94
2023-02-27T11:01:08.372Z,100757.28
2023-02-27T11:03:44.246Z,100752.41
2023-02-27T11:06:24.748Z,100756.88
2023-02-27T11:09:23.637Z,100750.16
2023-02-27T11:11:51.515Z,100755.06
2023-02-27T11:14:29.421Z,100757.56
2023-02-27T11:16:59.396Z,100764.16
2023-02-27T11:19:37.770Z,100760.66
2023-02-27T11:22:15.927Z,100761.13
2023-02-27T11:24:43.413Z,100761.47
2023-02-27T11:27:29.304Z,100769.44
2023-02-27T11:30:04.859Z,100770.59
2023-02-27T11:32:45.419Z,100770.03
2023-02-27T11:35:31.681Z,100763.97
2023-02-27T11:38:16.893Z,100768.81
2023-02-27T11:40:52.218Z,100768.69
2023-02-27T11:43:31.215Z,100769.34
2023-02-27T11:46:11.378Z,100764.22
2023-02-27T11:49:01.461Z,100773.50
2023-02-27T11:51:31.133Z,100782.25
2023-02-27T11:54:07.494Z,100771.59
2023-02-27T11:56:39.077Z,100779.66
2023-02-27T11:59:22.124Z,100777.53
2023-02-27T12:01:48.964Z,100769.16
2023-02-27T12:04:29.757Z,100782.03
2023-02-27T12:07:06.280Z,100778.56
2023-02-27T12:09:39.959Z,100782.53
2023-02-27T12:12:28.413Z,100783.19
2023-02-27T12:15:13.359Z,100774.44
2023-02-27T12:17:52.446Z,100778.34
2023-02-27T12:20:28.033Z,100787.25
2023-02-27T12:22:56.013Z,100778.41
2023-02-27T12:25:46.526Z,100781.47
2023-02-27T12:28:23.950Z,100788.25
2023-02-27T12:31:14.090Z,100795.75
2023-02-27T12:33:48.681Z,100792.78
2023-02-27T12:36:15.934Z,100791.25
2023-02-27T12:38:42.962Z,100792.47
2023-02-27T12:41:54.608Z,100806.38
2023-02-27T12:44:58.894Z,100803.28
2023-02-27T12:47:55.002Z,100810.50
2023-02-27T12:50:24.599Z,100807.31
2023-02-27T12:53:23.731Z,100816.25
2023-02-27T12:55:58.090Z,100818.06
2023-02-27T12:58:54.612Z,100811.06
2023-02-27T13:01:39.543Z,100811.53
2023-02-27T13:04:26.438Z,100808.38
2023-02-27T13:07:09.642Z,100822.50
2023-02-27T13:09:47.774Z,100818.47
2023-02-27T13:12:33.718Z,100817.50
2023-02-27T13:15:06.377Z,100830.00
2023-02-27T13:17:49.535Z,100834.13
2023-02-27T13:20:22.377Z,100832.06
2023-02-27T13:23:01.078Z,100826.53
2023-02-27T13:25:30.350Z,100820.88
2023-02-27T13:28:08.337Z,100823.78
2023-02-27T13:31:00.962Z,100834.13
2023-02-27T13:33:41.929Z,100828.69
2023-02-27T13:36:30.271Z,100840.03
2023-02-27T13:38:57.687Z,100844.81
2023-02-27T13:41:24.483Z,100829.69
2023-02-27T13:43:53.980Z,100844.16
2023-02-27T13:46:29.020Z,100840.19
2023-02-27T13:49:28.152Z,100839.41
2023-02-27T13:51:59.521Z,100853.50
2023-02-27T13:54:33.551Z,100867.34
2023-02-27T13:57:26.358Z,100879.94
2023-02-27T13:59:56.632Z,100863.69
2023-02-27T14:02:34.843Z,100859.81
2023-02-27T14:05:06.279Z,100871.53
2023-02-27T14:07:55.355Z,100871.22
2023-02-27T14:10:29.118Z,100872.88
2023-02-27T14:12:57.797Z,100884.25
2023-02-27T14:15:24.608Z,100892.72
2023-02-27T14:18:11.421Z,100901.50
2023-02-27T14:20:40.912Z,100897.38
2023-02-27T14:23:25.943Z,100902.94
2023-02-27T14:26:14.263Z,100905.59
2023-02-27T14:28:51.811Z,100919.28
2023-02-27T14:31:30.896Z,100911.03
2023-02-27T14:34:05.241Z,100909.59
2023-02-27T14:36:39.685Z,100917.56
2023-02-27T14:39:06.763Z,100919.72
2023-02-27T14:41:51.653Z,100926.78
2023-02-27T14:44:20.222Z,100937.06
2023-02-27T14:46:47.166Z,100947.44
2023-02-27T14:49:17.054Z,100942.34
2023-02-27T14:51:44.223Z,100937.63
2023-02-27T14:54:16.988Z,100939.50
2023-02-27T14:57:18.092Z,100956.22
2023-02-27T14:59:53.065Z,100968.06
2023-02-27T15:02:36.216Z,100970.22
2023-02-27T15:05:03.427Z,100982.84
2023-02-27T15:07:33.925Z,100983.97
2023-02-27T15:10:04.528Z,100981.41
2023-02-27T15:12:37.241Z,100979.09
2023-02-27T15:15:06.323Z,100964.25
2023-02-27T15:17:46.268Z,100985.53
2023-02-27T15:20:34.625Z,100980.28
2023-02-27T15:23:20.051Z,100995.56
2023-02-27T15:25:47.063Z,101013.44
2023-02-27T15:28:22.329Z,101002.47
2023-02-27T15:30:52.882Z,101005.03
2023-02-27T15:33:26.552Z,101000.53
2023-02-27T15:35:53.730Z,101011.03
2023-02-27T15:38:32.577Z,101015.63
2023-02-27T15:41:02.116Z,101047.53
2023-02-27T15:43:30.028Z,101043.91
2023-02-27T15:45:58.449Z,101044.50
2023-02-27T15:48:26.167Z,101050.63
2023-02-27T15:51:04.419Z,101069.03
2023-02-27T15:53:34.113Z,101083.69
2023-02-27T15:56:06.187Z,101078.28
2023-02-27T15:58:38.952Z,101062.25
2023-02-27T16:01:11.632Z,101056.38
2023-02-27T16:03:44.103Z,101059.72
2023-02-27T16:06:20.498Z,101043.19
2023-02-27T16:09:00.417Z,101046.88
2023-02-27T16:11:33.385Z,101068.28
2023-02-27T16:14:00.853Z,101089.50
2023-02-27T16:16:37.572Z,101101.91
2023-02-27T16:19:27.997Z,101115.97
2023-02-27T16:22:27.697Z,101122.09
2023-02-27T16:24:56.225Z,101119.50
2023-02-27T16:27:29.630Z,101122.03
2023-02-27T16:30:02.982Z,101132.69
2023-02-27T16:32:39.449Z,101135.44
2023-02-27T16:35:15.547Z,101139.78
2023-02-27T16:37:43.577Z,101141.47
2023-02-27T16:40:17.486Z,101138.88
2023-02-27T16:42:45.528Z,101139.75
2023-02-27T16:45:20.143Z,101141.53
2023-02-27T16:47:56.379Z,101153.81
2023-02-27T16:50:34.087Z,101160.81
2023-02-27T16:53:01.142Z,101155.47
2023-02-27T16:55:28.352Z,101158.97
2023-02-27T16:57:56.060Z,101166.78
2023-02-27T17:00:23.320Z,101185.47
2023-02-27T17:02:51.273Z,101191.59
2023-02-27T17:05:19.484Z,101201.22
2023-02-27T17:07:46.705Z,101200.41
2023-02-27T17:10:19.255Z,101184.56
2023-02-27T17:12:48.007Z,101189.78
2023-02-27T17:15:16.113Z,101194.09
2023-02-27T17:17:43.906Z,101200.22
2023-02-27T17:20:13.974Z,101212.66
2023-02-27T17:22:44.988Z,101218.88
2023-02-27T17:25:14.182Z,101226.81
2023-02-27T17:27:43.798Z,101225.91
2023-02-27T17:30:11.469Z,101221.47
2023-02-27T17:32:38.462Z,101220.50
2023-02-27T17:35:05.755Z,101217.84
2023-02-27T17:37:32.645Z,101216.25
2023-02-27T17:39:59.632Z,101235.56
2023-02-27T17:42:26.625Z,101251.28
2023-02-27T17:44:53.556Z,101266.28
2023-02-27T17:47:20.548Z,101259.28
2023-02-27T17:49:47.608Z,101247.03
2023-02-27T17:52:14.646Z,101244.38
2023-02-27T17:54:41.588Z,101247.00
2023-02-27T17:57:10.494Z,101243.34
2023-02-27T17:59:37.625Z,101243.31
2023-02-27T18:02:04.658Z,101259.16
2023-02-27T18:04:31.616Z,101258.06
2023-02-27T18:06:58.896Z,101262.31
2023-02-27T18:09:25.835Z,101277.72
2023-02-27T18:11:52.775Z,101288.94
2023-02-27T18:14:19.645Z,101282.28
2023-02-27T18:16:46.834Z,101284.16
2023-02-27T18:19:14.636Z,101296.47
2023-02-27T18:21:42.930Z,101297.53
2023-02-27T18:24:10.246Z,101288.69
2023-02-27T18:26:37.778Z,101284.09
2023-02-27T18:29:10.514Z,101290.88
2023-02-27T18:31:43.395Z,101269.94
2023-02-27T18:34:12.028Z,101275.25
2023-02-27T18:36:39.088Z,101278.63
2023-02-27T18:39:06.564Z,101273.41
2023-02-27T18:41:34.633Z,101273.16
2023-02-27T18:44:01.624Z,101280.03
2023-02-27T18:46:29.561Z,101286.44
2023-02-27T18:48:56.967Z,101277.59
2023-02-27T18:51:24.830Z,101272.84
2023-02-27T18:53:53.096Z,101269.19
2023-02-27T18:56:23.255Z,101293.66
2023-02-27T18:58:51.370Z,101291.63
2023-02-27T19:01:23.867Z,101296.94
2023-02-27T19:03:51.694Z,101302.19
2023-02-27T19:06:18.619Z,101304.41
2023-02-27T19:08:46.422Z,101316.72
2023-02-27T19:11:33.753Z,101309.66
2023-02-27T19:14:02.572Z,101318.06
2023-02-27T19:16:30.032Z,101317.34
2023-02-27T19:18:58.728Z,101311.22
2023-02-27T19:21:26.796Z,101347.69
2023-02-27T19:23:54.240Z,101348.69
2023-02-27T19:26:21.788Z,101343.63
2023-02-27T19:28:54.082Z,101350.16
2023-02-27T19:31:23.621Z,101362.50
2023-02-27T19:33:50.968Z,101376.78
2023-02-27T19:36:21.053Z,101372.63
2023-02-27T19:38:48.666Z,101369.06
2023-02-27T19:41:17.027Z,101368.03
2023-02-27T19:43:44.423Z,101361.53
2023-02-27T19:46:14.276Z,101363.75
2023-02-27T19:48:41.504Z,101369.56
2023-02-27T19:51:11.231Z,101363.03
2023-02-27T19:53:39.801Z,101351.50
2023-02-27T19:56:09.159Z,101354.38
2023-02-27T19:58:36.647Z,101339.44
2023-02-27T20:01:04.996Z,101325.13
2023-02-27T20:03:33.504Z,101339.31
2023-02-27T20:06:00.435Z,101335.16
2023-02-27T20:08:27.386Z,101330.44
2023-02-27T20:10:58.716Z,101315.47
2023-02-27T20:13:26.858Z,101329.22
2023-02-27T20:16:03.257Z,101322.88
2023-02-27T20:18:31.239Z,101326.19
2023-02-27T20:21:01.956Z,101329.56
2023-02-27T20:23:30.038Z,101329.16
2023-02-27T20:25:57.055Z,101366.19
2023-02-27T20:28:23.975Z,101378.25
2023-02-27T20:30:50.836Z,101382.59
2023-02-27T20:33:17.717Z,101408.38
2023-02-27T20:35:44.797Z,101402.16
2023-02-27T20:38:11.804Z,101415.84
2023-02-27T20:40:38.810Z,101417.44
2023-02-27T20:43:05.683Z,101421.63
2023-02-27T20:45:32.551Z,101415.56
2023-02-27T20:47:59.414Z,101414.25
2023-02-27T20:50:26.305Z,101415.94
2023-02-27T20:52:54.629Z,101423.25
2023-02-27T20:55:22.697Z,101424.50
2023-02-27T20:57:49.554Z,101434.03
2023-02-27T21:00:16.741Z,101431.16
2023-02-27T21:02:44.681Z,101436.06
2023-02-27T21:05:11.599Z,101440.88
2023-02-27T21:07:38.519Z,101443.47
2023-02-27T21:10:05.870Z,101450.66
2023-02-27T21:12:34.124Z,101441.81
2023-02-27T21:15:01.026Z,101442.53
2023-02-27T21:17:27.967Z,101462.09
2023-02-27T21:19:54.900Z,101453.03
2023-02-27T21:22:21.983Z,101466.91
2023-02-27T21:24:52.014Z,101474.00
2023-02-27T21:27:21.396Z,101456.81
2023-02-27T21:29:49.082Z,101473.06
2023-02-27T21:32:16.054Z,101491.78
2023-02-27T21:34:42.980Z,101503.69
2023-02-27T21:37:12.454Z,101501.56
2023-02-27T21:39:40.468Z,101489.34
2023-02-27T21:42:07.652Z,101496.25
2023-02-27T21:44:34.550Z,101496.44
2023-02-27T21:47:10.016Z,101496.91
2023-02-27T21:49:37.385Z,101507.19
2023-02-27T21:52:04.475Z,101513.63
2023-02-27T21:54:31.544Z,101492.81
2023-02-27T21:57:01.870Z,101496.97
2023-02-27T21:59:29.605Z,101511.59
2023-02-27T22:01:57.954Z,101505.22
2023-02-27T22:04:25.436Z,101512.41
2023-02-27T22:06:52.789Z,101521.47
2023-02-27T22:09:20.415Z,101529.16
2023-02-27T22:11:48.112Z,101526.47
2023-02-27T22:14:15.300Z,101511.44
2023-02-27T22:16:42.679Z,101524.78
2023-02-27T22:19:12.922Z,101545.66
2023-02-27T22:21:40.851Z,101532.53
2023-02-27T22:24:08.061Z,101533.84
2023-02-27T22:26:35.895Z,101539.94
2023-02-27T22:29:03.901Z,101546.06
2023-02-27T22:31:34.468Z,101539.31
2023-02-27T22:34:05.955Z,101543.22
2023-02-27T22:36:34.329Z,101546.34
2023-02-27T22:39:02.041Z,101544.47
2023-02-27T22:41:34.590Z,101543.81
2023-02-27T22:44:02.281Z,101568.09
2023-02-27T22:46:34.967Z,101567.31
2023-02-27T22:49:08.461Z,101580.31
2023-02-27T22:51:35.586Z,101569.72
2023-02-27T22:54:04.159Z,101565.03
2023-02-27T22:56:31.819Z,101569.72
2023-02-27T22:58:58.858Z,101571.16
2023-02-27T23:01:31.589Z,101570.56
2023-02-27T23:04:01.088Z,101564.28
2023-02-27T23:06:31.084Z,101567.81
2023-02-27T23:08:58.434Z,101574.50
2023-02-27T23:11:25.456Z,101559.94
2023-02-27T23:13:52.704Z,101567.66
2023-02-27T23:16:20.331Z,101589.31
2023-02-27T23:18:50.313Z,101584.63
2023-02-27T23:21:20.306Z,101572.59
2023-02-27T23:23:47.931Z,101572.78
2023-02-27T23:26:15.293Z,101577.47
2023-02-27T23:28:42.926Z,101593.53
2023-02-27T23:31:10.081Z,101602.13
2023-02-27T23:33:37.062Z,101587.53
2023-02-27T23:36:04.503Z,101594.13
2023-02-27T23:38:31.436Z,101592.47
2023-02-27T23:40:58.599Z,101602.66
2023-02-27T23:43:43.983Z,101634.78
2023-02-27T23:46:16.450Z,101644.28
2023-02-27T23:48:43.705Z,101658.47
2023-02-27T23:51:11.642Z,101646.59
2023-02-27T23:53:40.432Z,101655.63
2023-02-27T23:56:20.378Z,101669.78
2023-02-27T23:58:49.039Z,101657.00
